sensor_id;sensor_type;location;lat;lon;timestamp;temperature;humidity
19920;DHT22;10122;50.074;19.920;2022-12-29T00:01:16;4.00;99.90
19920;DHT22;10122;50.074;19.920;2022-12-29T00:03:41;3.80;99.90
19920;DHT22;10122;50.074;19.920;2022-12-29T00:06:07;3.70;99.90
19920;DHT22;10122;50.074;19.920;2022-12-29T00:08:33;3.60;99.90
19920;DHT22;10122;50.074;19.920;2022-12-29T00:11:09;3.50;99.90
19920;DHT22;10122;50.074;19.920;2022-12-29T00:13:35;3.50;99.90
19920;DHT22;10122;50.074;19.920;2022-12-29T00:16:19;3.50;99.90
19920;DHT22;10122;50.074;19.920;2022-12-29T00:18:46;3.40;99.90
19920;DHT22;10122;50.074;19.920;2022-12-29T00:21:16;3.40;99.90
19920;DHT22;10122;50.074;19.920;2022-12-29T00:24:01;3.40;99.90
19920;DHT22;10122;50.074;19.920;2022-12-29T00:27:09;3.40;99.90
19920;DHT22;10122;50.074;19.920;2022-12-29T00:29:51;3.50;99.90
19920;DHT22;10122;50.074;19.920;2022-12-29T00:32:36;3.60;99.90
19920;DHT22;10122;50.074;19.920;2022-12-29T00:35:32;3.60;99.90
19920;DHT22;10122;50.074;19.920;2022-12-29T00:38:02;3.60;99.90
19920;DHT22;10122;50.074;19.920;2022-12-29T00:40:47;3.90;99.90
19920;DHT22;10122;50.074;19.920;2022-12-29T00:43:31;4.20;99.90
19920;DHT22;10122;50.074;19.920;2022-12-29T00:46:15;4.40;99.90
19920;DHT22;10122;50.074;19.920;2022-12-29T00:48:41;4.40;99.90
19920;DHT22;10122;50.074;19.920;2022-12-29T00:51:25;4.50;99.90
19920;DHT22;10122;50.074;19.920;2022-12-29T00:53:51;4.50;99.90
19920;DHT22;10122;50.074;19.920;2022-12-29T00:56:16;4.50;99.90
19920;DHT22;10122;50.074;19.920;2022-12-29T00:58:42;4.50;99.90
19920;DHT22;10122;50.074;19.920;2022-12-29T01:01:08;4.40;99.90
19920;DHT22;10122;50.074;19.920;2022-12-29T01:03:36;4.30;99.90
19920;DHT22;10122;50.074;19.920;2022-12-29T01:06:04;4.20;99.90
19920;DHT22;10122;50.074;19.920;2022-12-29T01:08:31;4.00;99.90
19920;DHT22;10122;50.074;19.920;2022-12-29T01:11:08;4.00;99.90
19920;DHT22;10122;50.074;19.920;2022-12-29T01:13:35;4.20;99.90
19920;DHT22;10122;50.074;19.920;2022-12-29T01:16:04;4.40;99.90
19920;DHT22;10122;50.074;19.920;2022-12-29T01:18:30;4.50;99.90
19920;DHT22;10122;50.074;19.920;2022-12-29T01:21:06;4.60;99.90
19920;DHT22;10122;50.074;19.920;2022-12-29T01:23:32;4.70;99.90
19920;DHT22;10122;50.074;19.920;2022-12-29T01:26:11;4.70;99.90
19920;DHT22;10122;50.074;19.920;2022-12-29T01:28:37;4.80;99.90
19920;DHT22;10122;50.074;19.920;2022-12-29T01:31:05;4.80;99.90
19920;DHT22;10122;50.074;19.920;2022-12-29T01:33:31;4.80;99.90
19920;DHT22;10122;50.074;19.920;2022-12-29T01:36:04;4.80;99.90
19920;DHT22;10122;50.074;19.920;2022-12-29T01:38:31;4.60;99.90
19920;DHT22;10122;50.074;19.920;2022-12-29T01:40:57;4.60;99.90
19920;DHT22;10122;50.074;19.920;2022-12-29T01:46:04;4.40;99.90
19920;DHT22;10122;50.074;19.920;2022-12-29T01:48:32;4.20;99.90
19920;DHT22;10122;50.074;19.920;2022-12-29T01:50:58;4.00;99.90
19920;DHT22;10122;50.074;19.920;2022-12-29T01:53:29;3.90;99.90
19920;DHT22;10122;50.074;19.920;2022-12-29T01:55:59;3.90;99.90
19920;DHT22;10122;50.074;19.920;2022-12-29T01:58:30;3.80;99.90
19920;DHT22;10122;50.074;19.920;2022-12-29T02:00:57;3.90;99.90
19920;DHT22;10122;50.074;19.920;2022-12-29T02:03:25;4.00;99.90
19920;DHT22;10122;50.074;19.920;2022-12-29T02:05:53;4.10;99.90
19920;DHT22;10122;50.074;19.920;2022-12-29T02:08:22;4.20;99.90
19920;DHT22;10122;50.074;19.920;2022-12-29T02:10:49;4.30;99.90
19920;DHT22;10122;50.074;19.920;2022-12-29T02:13:16;4.40;99.90
19920;DHT22;10122;50.074;19.920;2022-12-29T02:24:09;4.00;99.90
19920;DHT22;10122;50.074;19.920;2022-12-29T02:31:48;3.90;99.90
19920;DHT22;10122;50.074;19.920;2022-12-29T02:34:22;3.90;99.90
19920;DHT22;10122;50.074;19.920;2022-12-29T02:37:12;4.00;99.90
19920;DHT22;10122;50.074;19.920;2022-12-29T02:39:55;4.10;99.90
19920;DHT22;10122;50.074;19.920;2022-12-29T02:45:14;4.20;99.90
19920;DHT22;10122;50.074;19.920;2022-12-29T02:50:35;4.40;99.90
19920;DHT22;10122;50.074;19.920;2022-12-29T02:53:05;4.40;99.90
19920;DHT22;10122;50.074;19.920;2022-12-29T02:55:32;4.30;99.90
19920;DHT22;10122;50.074;19.920;2022-12-29T02:58:20;4.40;99.90
19920;DHT22;10122;50.074;19.920;2022-12-29T03:06:35;4.50;99.90
19920;DHT22;10122;50.074;19.920;2022-12-29T03:09:18;4.40;99.90
19920;DHT22;10122;50.074;19.920;2022-12-29T03:20:01;4.10;99.90
19920;DHT22;10122;50.074;19.920;2022-12-29T03:22:31;4.10;99.90
19920;DHT22;10122;50.074;19.920;2022-12-29T03:25:15;4.10;99.90
19920;DHT22;10122;50.074;19.920;2022-12-29T03:27:51;4.10;99.90
19920;DHT22;10122;50.074;19.920;2022-12-29T03:30:18;4.10;99.90
19920;DHT22;10122;50.074;19.920;2022-12-29T03:32:54;4.20;99.90
19920;DHT22;10122;50.074;19.920;2022-12-29T03:35:22;4.10;99.90
19920;DHT22;10122;50.074;19.920;2022-12-29T03:38:07;4.10;99.90
19920;DHT22;10122;50.074;19.920;2022-12-29T03:40:33;4.10;99.90
19920;DHT22;10122;50.074;19.920;2022-12-29T03:43:01;4.00;99.90
19920;DHT22;10122;50.074;19.920;2022-12-29T03:45:28;4.00;99.90
19920;DHT22;10122;50.074;19.920;2022-12-29T03:47:54;4.00;99.90
19920;DHT22;10122;50.074;19.920;2022-12-29T03:50:20;4.00;99.90
19920;DHT22;10122;50.074;19.920;2022-12-29T03:52:45;4.00;99.90
19920;DHT22;10122;50.074;19.920;2022-12-29T03:55:11;4.00;99.90
19920;DHT22;10122;50.074;19.920;2022-12-29T03:57:37;4.00;99.90
19920;DHT22;10122;50.074;19.920;2022-12-29T04:00:04;4.00;99.90
19920;DHT22;10122;50.074;19.920;2022-12-29T04:02:30;3.90;99.90
19920;DHT22;10122;50.074;19.920;2022-12-29T04:04:56;3.90;99.90
19920;DHT22;10122;50.074;19.920;2022-12-29T04:07:22;3.80;99.90
19920;DHT22;10122;50.074;19.920;2022-12-29T04:09:47;3.80;99.90
19920;DHT22;10122;50.074;19.920;2022-12-29T04:12:13;3.80;99.90
19920;DHT22;10122;50.074;19.920;2022-12-29T04:14:40;3.80;99.90
19920;DHT22;10122;50.074;19.920;2022-12-29T04:17:06;3.80;99.90
19920;DHT22;10122;50.074;19.920;2022-12-29T04:19:31;3.80;99.90
19920;DHT22;10122;50.074;19.920;2022-12-29T04:21:57;3.70;99.90
19920;DHT22;10122;50.074;19.920;2022-12-29T04:24:23;3.70;99.90
19920;DHT22;10122;50.074;19.920;2022-12-29T04:26:49;3.70;99.90
19920;DHT22;10122;50.074;19.920;2022-12-29T04:29:15;3.80;99.90
19920;DHT22;10122;50.074;19.920;2022-12-29T04:31:40;3.80;99.90
19920;DHT22;10122;50.074;19.920;2022-12-29T04:34:06;3.80;99.90
19920;DHT22;10122;50.074;19.920;2022-12-29T04:36:32;3.80;99.90
19920;DHT22;10122;50.074;19.920;2022-12-29T04:38:57;4.00;99.90
19920;DHT22;10122;50.074;19.920;2022-12-29T04:41:24;4.10;99.90
19920;DHT22;10122;50.074;19.920;2022-12-29T04:43:49;4.10;99.90
19920;DHT22;10122;50.074;19.920;2022-12-29T04:46:15;4.10;99.90
19920;DHT22;10122;50.074;19.920;2022-12-29T04:48:41;4.00;99.90
19920;DHT22;10122;50.074;19.920;2022-12-29T04:51:07;4.10;99.90
19920;DHT22;10122;50.074;19.920;2022-12-29T04:53:32;4.20;99.90
19920;DHT22;10122;50.074;19.920;2022-12-29T04:55:58;4.40;99.90
19920;DHT22;10122;50.074;19.920;2022-12-29T04:58:24;4.40;99.90
19920;DHT22;10122;50.074;19.920;2022-12-29T05:00:50;4.40;99.90
19920;DHT22;10122;50.074;19.920;2022-12-29T05:03:16;4.40;99.90
19920;DHT22;10122;50.074;19.920;2022-12-29T05:05:42;4.30;99.90
19920;DHT22;10122;50.074;19.920;2022-12-29T05:08:07;4.20;99.90
19920;DHT22;10122;50.074;19.920;2022-12-29T05:10:33;4.20;99.90
19920;DHT22;10122;50.074;19.920;2022-12-29T05:12:59;4.30;99.90
19920;DHT22;10122;50.074;19.920;2022-12-29T05:15:25;4.30;99.90
19920;DHT22;10122;50.074;19.920;2022-12-29T05:17:51;4.20;99.90
19920;DHT22;10122;50.074;19.920;2022-12-29T05:20:16;4.20;99.90
19920;DHT22;10122;50.074;19.920;2022-12-29T05:22:42;4.00;99.90
19920;DHT22;10122;50.074;19.920;2022-12-29T05:25:08;3.80;99.90
19920;DHT22;10122;50.074;19.920;2022-12-29T05:27:34;3.70;99.90
19920;DHT22;10122;50.074;19.920;2022-12-29T05:30:00;3.80;99.90
19920;DHT22;10122;50.074;19.920;2022-12-29T05:32:25;3.80;99.90
19920;DHT22;10122;50.074;19.920;2022-12-29T05:34:51;3.80;99.90
19920;DHT22;10122;50.074;19.920;2022-12-29T05:37:17;3.80;99.90
19920;DHT22;10122;50.074;19.920;2022-12-29T05:39:43;3.80;99.90
19920;DHT22;10122;50.074;19.920;2022-12-29T05:42:08;3.90;99.90
19920;DHT22;10122;50.074;19.920;2022-12-29T05:44:34;3.80;99.90
19920;DHT22;10122;50.074;19.920;2022-12-29T05:47:00;3.70;99.90
19920;DHT22;10122;50.074;19.920;2022-12-29T05:49:25;3.70;99.90
19920;DHT22;10122;50.074;19.920;2022-12-29T05:51:51;3.70;99.90
19920;DHT22;10122;50.074;19.920;2022-12-29T05:54:17;3.70;99.90
19920;DHT22;10122;50.074;19.920;2022-12-29T05:56:43;3.70;99.90
19920;DHT22;10122;50.074;19.920;2022-12-29T05:59:08;3.70;99.90
19920;DHT22;10122;50.074;19.920;2022-12-29T06:01:34;3.70;99.90
19920;DHT22;10122;50.074;19.920;2022-12-29T06:04:00;3.80;99.90
19920;DHT22;10122;50.074;19.920;2022-12-29T06:06:26;3.80;99.90
19920;DHT22;10122;50.074;19.920;2022-12-29T06:08:51;3.80;99.90
19920;DHT22;10122;50.074;19.920;2022-12-29T06:11:17;3.80;99.90
19920;DHT22;10122;50.074;19.920;2022-12-29T06:13:43;3.70;99.90
19920;DHT22;10122;50.074;19.920;2022-12-29T06:16:08;3.70;99.90
19920;DHT22;10122;50.074;19.920;2022-12-29T06:18:34;3.80;99.90
19920;DHT22;10122;50.074;19.920;2022-12-29T06:21:04;3.70;99.90
19920;DHT22;10122;50.074;19.920;2022-12-29T06:23:30;3.70;99.90
19920;DHT22;10122;50.074;19.920;2022-12-29T06:25:56;3.70;99.90
19920;DHT22;10122;50.074;19.920;2022-12-29T06:28:23;3.60;99.90
19920;DHT22;10122;50.074;19.920;2022-12-29T06:30:49;3.60;99.90
19920;DHT22;10122;50.074;19.920;2022-12-29T06:33:15;3.50;99.90
19920;DHT22;10122;50.074;19.920;2022-12-29T06:35:44;3.50;99.90
19920;DHT22;10122;50.074;19.920;2022-12-29T06:38:11;3.50;99.90
19920;DHT22;10122;50.074;19.920;2022-12-29T06:40:37;3.50;99.90
19920;DHT22;10122;50.074;19.920;2022-12-29T06:43:02;3.60;99.90
19920;DHT22;10122;50.074;19.920;2022-12-29T06:45:28;3.80;99.90
19920;DHT22;10122;50.074;19.920;2022-12-29T06:47:54;4.00;99.90
19920;DHT22;10122;50.074;19.920;2022-12-29T06:50:20;4.20;99.90
19920;DHT22;10122;50.074;19.920;2022-12-29T06:52:45;4.40;99.90
19920;DHT22;10122;50.074;19.920;2022-12-29T06:55:11;4.60;99.90
19920;DHT22;10122;50.074;19.920;2022-12-29T06:57:37;4.60;99.90
19920;DHT22;10122;50.074;19.920;2022-12-29T07:00:03;4.50;99.90
19920;DHT22;10122;50.074;19.920;2022-12-29T07:02:30;4.30;99.90
19920;DHT22;10122;50.074;19.920;2022-12-29T07:04:56;4.20;99.90
19920;DHT22;10122;50.074;19.920;2022-12-29T07:07:21;4.30;99.90
19920;DHT22;10122;50.074;19.920;2022-12-29T07:09:47;4.20;99.90
19920;DHT22;10122;50.074;19.920;2022-12-29T07:12:13;4.20;99.90
19920;DHT22;10122;50.074;19.920;2022-12-29T07:14:39;4.20;99.90
19920;DHT22;10122;50.074;19.920;2022-12-29T07:17:05;4.20;99.90
19920;DHT22;10122;50.074;19.920;2022-12-29T07:19:32;4.30;99.90
19920;DHT22;10122;50.074;19.920;2022-12-29T07:21:58;4.40;99.90
19920;DHT22;10122;50.074;19.920;2022-12-29T07:24:24;4.40;99.90
19920;DHT22;10122;50.074;19.920;2022-12-29T07:26:51;4.40;99.90
19920;DHT22;10122;50.074;19.920;2022-12-29T07:29:17;4.40;99.90
19920;DHT22;10122;50.074;19.920;2022-12-29T07:31:43;4.40;99.90
19920;DHT22;10122;50.074;19.920;2022-12-29T07:34:09;4.40;99.90
19920;DHT22;10122;50.074;19.920;2022-12-29T07:36:35;4.40;99.90
19920;DHT22;10122;50.074;19.920;2022-12-29T07:39:02;4.30;99.90
19920;DHT22;10122;50.074;19.920;2022-12-29T07:41:27;4.20;99.90
19920;DHT22;10122;50.074;19.920;2022-12-29T07:43:53;4.20;99.90
19920;DHT22;10122;50.074;19.920;2022-12-29T07:46:19;4.20;99.90
19920;DHT22;10122;50.074;19.920;2022-12-29T07:48:45;4.20;99.90
19920;DHT22;10122;50.074;19.920;2022-12-29T07:51:11;4.20;99.90
19920;DHT22;10122;50.074;19.920;2022-12-29T07:53:36;4.20;99.90
19920;DHT22;10122;50.074;19.920;2022-12-29T07:56:02;4.20;99.90
19920;DHT22;10122;50.074;19.920;2022-12-29T07:58:28;4.20;99.90
19920;DHT22;10122;50.074;19.920;2022-12-29T08:00:54;4.20;99.90
19920;DHT22;10122;50.074;19.920;2022-12-29T08:03:20;4.20;99.90
19920;DHT22;10122;50.074;19.920;2022-12-29T08:05:47;4.30;99.90
19920;DHT22;10122;50.074;19.920;2022-12-29T08:08:12;4.40;99.90
19920;DHT22;10122;50.074;19.920;2022-12-29T08:10:38;4.40;99.90
19920;DHT22;10122;50.074;19.920;2022-12-29T08:13:04;4.40;99.90
19920;DHT22;10122;50.074;19.920;2022-12-29T08:15:29;4.40;99.90
19920;DHT22;10122;50.074;19.920;2022-12-29T08:17:55;4.50;99.90
19920;DHT22;10122;50.074;19.920;2022-12-29T08:20:21;4.70;99.90
19920;DHT22;10122;50.074;19.920;2022-12-29T08:22:46;5.10;99.90
19920;DHT22;10122;50.074;19.920;2022-12-29T08:25:12;5.80;99.90
19920;DHT22;10122;50.074;19.920;2022-12-29T08:27:38;6.40;99.90
19920;DHT22;10122;50.074;19.920;2022-12-29T08:30:04;6.60;99.90
19920;DHT22;10122;50.074;19.920;2022-12-29T08:32:30;6.60;99.90
19920;DHT22;10122;50.074;19.920;2022-12-29T08:34:56;6.60;99.90
19920;DHT22;10122;50.074;19.920;2022-12-29T08:37:22;6.70;99.90
19920;DHT22;10122;50.074;19.920;2022-12-29T08:39:48;6.90;99.90
19920;DHT22;10122;50.074;19.920;2022-12-29T08:42:13;7.00;99.90
19920;DHT22;10122;50.074;19.920;2022-12-29T08:44:39;7.30;99.90
19920;DHT22;10122;50.074;19.920;2022-12-29T08:47:05;7.50;99.90
19920;DHT22;10122;50.074;19.920;2022-12-29T08:49:31;7.70;99.90
19920;DHT22;10122;50.074;19.920;2022-12-29T08:51:58;7.90;99.90
19920;DHT22;10122;50.074;19.920;2022-12-29T08:54:24;8.20;99.90
19920;DHT22;10122;50.074;19.920;2022-12-29T08:56:50;8.30;99.90
19920;DHT22;10122;50.074;19.920;2022-12-29T08:59:16;8.40;99.90
19920;DHT22;10122;50.074;19.920;2022-12-29T09:01:41;8.50;99.90
19920;DHT22;10122;50.074;19.920;2022-12-29T09:04:07;8.70;99.90
19920;DHT22;10122;50.074;19.920;2022-12-29T09:06:34;8.80;99.90
19920;DHT22;10122;50.074;19.920;2022-12-29T09:08:59;9.00;99.90
19920;DHT22;10122;50.074;19.920;2022-12-29T09:11:25;9.20;99.90
19920;DHT22;10122;50.074;19.920;2022-12-29T09:13:52;9.30;99.90
19920;DHT22;10122;50.074;19.920;2022-12-29T09:16:18;9.30;99.90
19920;DHT22;10122;50.074;19.920;2022-12-29T09:18:44;9.30;99.90
19920;DHT22;10122;50.074;19.920;2022-12-29T09:21:11;9.40;99.90
19920;DHT22;10122;50.074;19.920;2022-12-29T09:23:37;9.60;99.90
19920;DHT22;10122;50.074;19.920;2022-12-29T09:26:03;9.70;99.90
19920;DHT22;10122;50.074;19.920;2022-12-29T09:28:29;9.80;99.90
19920;DHT22;10122;50.074;19.920;2022-12-29T09:30:56;10.00;99.90
19920;DHT22;10122;50.074;19.920;2022-12-29T09:33:22;10.10;99.90
19920;DHT22;10122;50.074;19.920;2022-12-29T09:35:56;10.20;99.90
19920;DHT22;10122;50.074;19.920;2022-12-29T09:38:23;10.30;99.90
19920;DHT22;10122;50.074;19.920;2022-12-29T09:40:54;10.40;99.90
19920;DHT22;10122;50.074;19.920;2022-12-29T09:46:29;10.80;99.90
19920;DHT22;10122;50.074;19.920;2022-12-29T09:52:03;11.20;99.90
19920;DHT22;10122;50.074;19.920;2022-12-29T09:54:52;11.50;99.90
19920;DHT22;10122;50.074;19.920;2022-12-29T09:57:35;11.70;99.90
19920;DHT22;10122;50.074;19.920;2022-12-29T10:00:16;11.80;99.90
19920;DHT22;10122;50.074;19.920;2022-12-29T10:08:20;12.40;99.90
19920;DHT22;10122;50.074;19.920;2022-12-29T10:11:04;12.30;99.90
19920;DHT22;10122;50.074;19.920;2022-12-29T10:14:25;12.50;99.90
19920;DHT22;10122;50.074;19.920;2022-12-29T10:19:09;12.70;99.90
19920;DHT22;10122;50.074;19.920;2022-12-29T10:24:24;12.80;99.90
19920;DHT22;10122;50.074;19.920;2022-12-29T10:26:52;12.90;99.90
19920;DHT22;10122;50.074;19.920;2022-12-29T10:32:04;13.00;99.90
19920;DHT22;10122;50.074;19.920;2022-12-29T10:34:36;13.00;99.90
19920;DHT22;10122;50.074;19.920;2022-12-29T10:40:09;13.10;99.90
19920;DHT22;10122;50.074;19.920;2022-12-29T10:42:41;13.20;99.90
19920;DHT22;10122;50.074;19.920;2022-12-29T10:45:14;13.10;99.90
19920;DHT22;10122;50.074;19.920;2022-12-29T10:47:51;13.10;99.90
19920;DHT22;10122;50.074;19.920;2022-12-29T10:50:19;13.00;99.90
19920;DHT22;10122;50.074;19.920;2022-12-29T10:52:44;13.00;99.90
19920;DHT22;10122;50.074;19.920;2022-12-29T10:55:19;13.00;99.90
19920;DHT22;10122;50.074;19.920;2022-12-29T10:57:47;13.30;99.90
19920;DHT22;10122;50.074;19.920;2022-12-29T11:00:17;13.30;99.90
19920;DHT22;10122;50.074;19.920;2022-12-29T11:08:24;12.90;99.90
19920;DHT22;10122;50.074;19.920;2022-12-29T11:11:07;12.80;99.90
19920;DHT22;10122;50.074;19.920;2022-12-29T11:13:50;12.70;99.90
19920;DHT22;10122;50.074;19.920;2022-12-29T11:16:33;12.60;99.90
19920;DHT22;10122;50.074;19.920;2022-12-29T11:19:00;12.50;99.90
19920;DHT22;10122;50.074;19.920;2022-12-29T11:24:18;12.30;99.90
19920;DHT22;10122;50.074;19.920;2022-12-29T11:26:44;12.30;99.90
19920;DHT22;10122;50.074;19.920;2022-12-29T11:29:18;12.20;99.90
19920;DHT22;10122;50.074;19.920;2022-12-29T11:31:48;12.20;99.90
19920;DHT22;10122;50.074;19.920;2022-12-29T11:34:35;12.10;99.90
19920;DHT22;10122;50.074;19.920;2022-12-29T11:37:10;12.10;99.90
19920;DHT22;10122;50.074;19.920;2022-12-29T11:39:38;12.00;99.90
19920;DHT22;10122;50.074;19.920;2022-12-29T11:42:10;12.00;99.90
19920;DHT22;10122;50.074;19.920;2022-12-29T11:44:43;12.00;99.90
19920;DHT22;10122;50.074;19.920;2022-12-29T11:47:13;12.10;99.90
19920;DHT22;10122;50.074;19.920;2022-12-29T11:49:50;12.30;99.90
19920;DHT22;10122;50.074;19.920;2022-12-29T11:52:22;12.20;99.90
19920;DHT22;10122;50.074;19.920;2022-12-29T11:54:50;12.20;99.90
19920;DHT22;10122;50.074;19.920;2022-12-29T11:57:17;12.20;99.90
19920;DHT22;10122;50.074;19.920;2022-12-29T11:59:50;12.20;99.90
19920;DHT22;10122;50.074;19.920;2022-12-29T12:04:51;12.60;99.90
19920;DHT22;10122;50.074;19.920;2022-12-29T12:07:42;12.50;99.90
19920;DHT22;10122;50.074;19.920;2022-12-29T12:10:39;12.40;99.90
19920;DHT22;10122;50.074;19.920;2022-12-29T12:16:12;12.30;99.90
19920;DHT22;10122;50.074;19.920;2022-12-29T12:18:55;12.20;99.90
19920;DHT22;10122;50.074;19.920;2022-12-29T12:21:27;12.20;99.90
19920;DHT22;10122;50.074;19.920;2022-12-29T12:29:59;12.10;99.90
19920;DHT22;10122;50.074;19.920;2022-12-29T12:35:13;12.10;99.90
19920;DHT22;10122;50.074;19.920;2022-12-29T12:41:00;12.10;99.90
19920;DHT22;10122;50.074;19.920;2022-12-29T12:43:40;12.00;99.90
19920;DHT22;10122;50.074;19.920;2022-12-29T12:51:59;12.00;99.90
19920;DHT22;10122;50.074;19.920;2022-12-29T12:59:56;11.90;99.90
19920;DHT22;10122;50.074;19.920;2022-12-29T13:02:31;11.90;99.90
19920;DHT22;10122;50.074;19.920;2022-12-29T13:16:06;11.80;99.90
19920;DHT22;10122;50.074;19.920;2022-12-29T13:22:07;11.80;99.90
19920;DHT22;10122;50.074;19.920;2022-12-29T13:27:40;12.00;99.90
19920;DHT22;10122;50.074;19.920;2022-12-29T13:40:59;12.20;99.90
19920;DHT22;10122;50.074;19.920;2022-12-29T13:43:27;12.10;99.90
19920;DHT22;10122;50.074;19.920;2022-12-29T13:46:05;12.10;99.90
19920;DHT22;10122;50.074;19.920;2022-12-29T13:49:33;12.00;99.90
19920;DHT22;10122;50.074;19.920;2022-12-29T13:51:46;12.00;99.90
19920;DHT22;10122;50.074;19.920;2022-12-29T14:00:23;11.80;99.90
19920;DHT22;10122;50.074;19.920;2022-12-29T14:05:29;11.70;99.90
19920;DHT22;10122;50.074;19.920;2022-12-29T14:08:04;11.60;99.90
19920;DHT22;10122;50.074;19.920;2022-12-29T14:10:57;11.60;99.90
19920;DHT22;10122;50.074;19.920;2022-12-29T14:13:23;11.50;99.90
19920;DHT22;10122;50.074;19.920;2022-12-29T14:15:59;11.50;99.90
19920;DHT22;10122;50.074;19.920;2022-12-29T14:18:29;11.40;99.90
19920;DHT22;10122;50.074;19.920;2022-12-29T14:20:58;11.40;99.90
19920;DHT22;10122;50.074;19.920;2022-12-29T14:28:37;11.30;99.90
19920;DHT22;10122;50.074;19.920;2022-12-29T14:36:42;11.20;99.90
19920;DHT22;10122;50.074;19.920;2022-12-29T14:42:20;11.20;99.90
19920;DHT22;10122;50.074;19.920;2022-12-29T14:44:51;11.10;99.90
19920;DHT22;10122;50.074;19.920;2022-12-29T14:47:48;11.10;99.90
19920;DHT22;10122;50.074;19.920;2022-12-29T14:52:57;11.10;99.90
19920;DHT22;10122;50.074;19.920;2022-12-29T14:58:00;11.00;99.90
19920;DHT22;10122;50.074;19.920;2022-12-29T15:00:32;11.00;99.90
19920;DHT22;10122;50.074;19.920;2022-12-29T15:08:04;10.90;99.90
19920;DHT22;10122;50.074;19.920;2022-12-29T15:10:39;10.90;99.90
19920;DHT22;10122;50.074;19.920;2022-12-29T15:13:20;10.80;99.90
19920;DHT22;10122;50.074;19.920;2022-12-29T15:15:46;10.70;99.90
19920;DHT22;10122;50.074;19.920;2022-12-29T15:18:24;10.70;99.90
19920;DHT22;10122;50.074;19.920;2022-12-29T15:20:57;10.70;99.90
19920;DHT22;10122;50.074;19.920;2022-12-29T15:23:23;10.60;99.90
19920;DHT22;10122;50.074;19.920;2022-12-29T15:28:28;10.50;99.90
19920;DHT22;10122;50.074;19.920;2022-12-29T15:31:10;10.50;99.90
19920;DHT22;10122;50.074;19.920;2022-12-29T15:33:39;10.40;99.90
19920;DHT22;10122;50.074;19.920;2022-12-29T15:36:11;10.40;99.90
19920;DHT22;10122;50.074;19.920;2022-12-29T15:38:38;10.30;99.90
19920;DHT22;10122;50.074;19.920;2022-12-29T15:46:19;10.20;99.90
19920;DHT22;10122;50.074;19.920;2022-12-29T15:48:45;10.10;99.90
19920;DHT22;10122;50.074;19.920;2022-12-29T15:51:18;10.10;99.90
19920;DHT22;10122;50.074;19.920;2022-12-29T15:53:47;9.90;99.90
19920;DHT22;10122;50.074;19.920;2022-12-29T15:56:14;9.90;99.90
19920;DHT22;10122;50.074;19.920;2022-12-29T15:58:45;9.80;99.90
19920;DHT22;10122;50.074;19.920;2022-12-29T16:01:28;9.80;99.90
19920;DHT22;10122;50.074;19.920;2022-12-29T16:03:56;9.70;99.90
19920;DHT22;10122;50.074;19.920;2022-12-29T16:11:39;9.80;99.90
19920;DHT22;10122;50.074;19.920;2022-12-29T16:14:09;9.80;99.90
19920;DHT22;10122;50.074;19.920;2022-12-29T16:16:38;9.70;99.90
19920;DHT22;10122;50.074;19.920;2022-12-29T16:19:21;9.60;99.90
19920;DHT22;10122;50.074;19.920;2022-12-29T16:21:50;9.60;99.90
19920;DHT22;10122;50.074;19.920;2022-12-29T16:24:19;9.60;99.90
19920;DHT22;10122;50.074;19.920;2022-12-29T16:29:21;9.50;99.90
19920;DHT22;10122;50.074;19.920;2022-12-29T16:31:56;9.50;99.90
19920;DHT22;10122;50.074;19.920;2022-12-29T16:34:48;9.60;99.90
19920;DHT22;10122;50.074;19.920;2022-12-29T16:37:35;9.70;99.90
19920;DHT22;10122;50.074;19.920;2022-12-29T16:50:30;9.60;99.90
19920;DHT22;10122;50.074;19.920;2022-12-29T16:52:56;9.60;99.90
19920;DHT22;10122;50.074;19.920;2022-12-29T16:55:22;9.40;99.90
19920;DHT22;10122;50.074;19.920;2022-12-29T16:57:50;9.30;99.90
19920;DHT22;10122;50.074;19.920;2022-12-29T17:00:24;9.20;99.90
19920;DHT22;10122;50.074;19.920;2022-12-29T17:02:53;9.10;99.90
19920;DHT22;10122;50.074;19.920;2022-12-29T17:05:20;9.00;99.90
19920;DHT22;10122;50.074;19.920;2022-12-29T17:07:47;9.00;99.90
19920;DHT22;10122;50.074;19.920;2022-12-29T17:10:13;8.90;99.90
19920;DHT22;10122;50.074;19.920;2022-12-29T17:12:41;8.90;99.90
19920;DHT22;10122;50.074;19.920;2022-12-29T17:15:13;8.90;99.90
19920;DHT22;10122;50.074;19.920;2022-12-29T17:17:42;8.90;99.90
19920;DHT22;10122;50.074;19.920;2022-12-29T17:20:20;8.80;99.90
19920;DHT22;10122;50.074;19.920;2022-12-29T17:22:47;8.80;99.90
19920;DHT22;10122;50.074;19.920;2022-12-29T17:25:16;8.70;99.90
19920;DHT22;10122;50.074;19.920;2022-12-29T17:27:49;8.70;99.90
19920;DHT22;10122;50.074;19.920;2022-12-29T17:30:20;8.70;99.90
19920;DHT22;10122;50.074;19.920;2022-12-29T17:32:53;8.70;99.90
19920;DHT22;10122;50.074;19.920;2022-12-29T17:35:23;8.60;99.90
19920;DHT22;10122;50.074;19.920;2022-12-29T17:37:50;8.60;99.90
19920;DHT22;10122;50.074;19.920;2022-12-29T17:40:24;8.50;99.90
19920;DHT22;10122;50.074;19.920;2022-12-29T17:42:53;8.50;99.90
19920;DHT22;10122;50.074;19.920;2022-12-29T17:45:27;8.40;99.90
19920;DHT22;10122;50.074;19.920;2022-12-29T17:47:54;8.40;99.90
19920;DHT22;10122;50.074;19.920;2022-12-29T17:50:25;8.40;99.90
19920;DHT22;10122;50.074;19.920;2022-12-29T17:52:55;8.40;99.90
19920;DHT22;10122;50.074;19.920;2022-12-29T17:55:23;8.30;99.90
19920;DHT22;10122;50.074;19.920;2022-12-29T17:57:49;8.30;99.90
19920;DHT22;10122;50.074;19.920;2022-12-29T18:00:17;8.30;99.90
19920;DHT22;10122;50.074;19.920;2022-12-29T18:02:43;8.20;99.90
19920;DHT22;10122;50.074;19.920;2022-12-29T18:05:18;8.20;99.90
19920;DHT22;10122;50.074;19.920;2022-12-29T18:07:44;8.30;99.90
19920;DHT22;10122;50.074;19.920;2022-12-29T18:10:10;8.40;99.90
19920;DHT22;10122;50.074;19.920;2022-12-29T18:12:41;8.40;99.90
19920;DHT22;10122;50.074;19.920;2022-12-29T18:15:18;8.30;99.90
19920;DHT22;10122;50.074;19.920;2022-12-29T18:17:44;8.20;99.90
19920;DHT22;10122;50.074;19.920;2022-12-29T18:20:10;8.20;99.90
19920;DHT22;10122;50.074;19.920;2022-12-29T18:22:35;8.10;99.90
19920;DHT22;10122;50.074;19.920;2022-12-29T18:25:01;8.10;99.90
19920;DHT22;10122;50.074;19.920;2022-12-29T18:27:27;8.00;99.90
19920;DHT22;10122;50.074;19.920;2022-12-29T18:29:53;8.00;99.90
19920;DHT22;10122;50.074;19.920;2022-12-29T18:32:19;7.90;99.90
19920;DHT22;10122;50.074;19.920;2022-12-29T18:34:47;7.90;99.90
19920;DHT22;10122;50.074;19.920;2022-12-29T18:37:13;7.80;99.90
19920;DHT22;10122;50.074;19.920;2022-12-29T18:39:39;7.80;99.90
19920;DHT22;10122;50.074;19.920;2022-12-29T18:42:05;7.80;99.90
19920;DHT22;10122;50.074;19.920;2022-12-29T18:44:32;7.70;99.90
19920;DHT22;10122;50.074;19.920;2022-12-29T18:46:57;7.70;99.90